sensor_id;sensor_type;location;lat;lon;timestamp;temperature;humidity
68556;HTU21D;55544;51.032;5.866;2023-09-19T00:00:38;17.14;75.43
68556;HTU21D;55544;51.032;5.866;2023-09-19T00:03:06;17.19;75.55
68556;HTU21D;55544;51.032;5.866;2023-09-19T00:05:35;17.15;75.58
68556;HTU21D;55544;51.032;5.866;2023-09-19T00:08:02;17.11;75.95
68556;HTU21D;55544;51.032;5.866;2023-09-19T00:10:33;17.05;76.21
68556;HTU21D;55544;51.032;5.866;2023-09-19T00:13:04;17.07;76.12
68556;HTU21D;55544;51.032;5.866;2023-09-19T00:15:37;17.05;76.34
68556;HTU21D;55544;51.032;5.866;2023-09-19T00:18:03;17.03;76.50
68556;HTU21D;55544;51.032;5.866;2023-09-19T00:20:32;17.04;76.37
68556;HTU21D;55544;51.032;5.866;2023-09-19T00:22:57;17.03;76.55
68556;HTU21D;55544;51.032;5.866;2023-09-19T00:25:31;17.03;76.49
68556;HTU21D;55544;51.032;5.866;2023-09-19T00:27:57;17.01;76.59
68556;HTU21D;55544;51.032;5.866;2023-09-19T00:30:23;16.95;76.53
68556;HTU21D;55544;51.032;5.866;2023-09-19T00:32:50;16.94;76.80
68556;HTU21D;55544;51.032;5.866;2023-09-19T00:35:23;16.92;76.82
68556;HTU21D;55544;51.032;5.866;2023-09-19T00:37:53;16.93;76.80
68556;HTU21D;55544;51.032;5.866;2023-09-19T00:40:19;16.94;76.82
68556;HTU21D;55544;51.032;5.866;2023-09-19T00:42:48;16.90;77.19
68556;HTU21D;55544;51.032;5.866;2023-09-19T00:45:16;16.91;77.17
68556;HTU21D;55544;51.032;5.866;2023-09-19T00:47:51;16.89;77.28
68556;HTU21D;55544;51.032;5.866;2023-09-19T00:50:19;16.85;77.47
68556;HTU21D;55544;51.032;5.866;2023-09-19T00:52:48;16.85;77.44
68556;HTU21D;55544;51.032;5.866;2023-09-19T00:55:16;16.80;77.75
68556;HTU21D;55544;51.032;5.866;2023-09-19T00:57:45;16.86;77.67
68556;HTU21D;55544;51.032;5.866;2023-09-19T01:00:12;16.80;77.61
68556;HTU21D;55544;51.032;5.866;2023-09-19T01:02:42;16.82;77.63
68556;HTU21D;55544;51.032;5.866;2023-09-19T01:05:09;16.81;77.70
68556;HTU21D;55544;51.032;5.866;2023-09-19T01:07:36;16.86;77.30
68556;HTU21D;55544;51.032;5.866;2023-09-19T01:10:03;16.76;77.46
68556;HTU21D;55544;51.032;5.866;2023-09-19T01:27:02;16.77;77.12
68556;HTU21D;55544;51.032;5.866;2023-09-19T01:29:46;16.82;76.96
68556;HTU21D;55544;51.032;5.866;2023-09-19T01:32:21;16.74;77.29
68556;HTU21D;55544;51.032;5.866;2023-09-19T01:37:20;16.72;77.27
68556;HTU21D;55544;51.032;5.866;2023-09-19T01:40:02;16.71;77.11
68556;HTU21D;55544;51.032;5.866;2023-09-19T01:47:55;16.59;76.85
68556;HTU21D;55544;51.032;5.866;2023-09-19T01:50:40;16.63;76.67
68556;HTU21D;55544;51.032;5.866;2023-09-19T01:53:23;16.59;76.85
68556;HTU21D;55544;51.032;5.866;2023-09-19T01:55:52;16.54;76.73
68556;HTU21D;55544;51.032;5.866;2023-09-19T01:58:41;16.58;76.65
68556;HTU21D;55544;51.032;5.866;2023-09-19T02:01:14;16.59;76.46
68556;HTU21D;55544;51.032;5.866;2023-09-19T02:03:41;16.56;76.73
68556;HTU21D;55544;51.032;5.866;2023-09-19T02:06:17;16.60;76.45
68556;HTU21D;55544;51.032;5.866;2023-09-19T02:08:44;16.52;76.48
68556;HTU21D;55544;51.032;5.866;2023-09-19T02:11:11;16.56;76.21
68556;HTU21D;55544;51.032;5.866;2023-09-19T02:13:37;16.54;76.26
68556;HTU21D;55544;51.032;5.866;2023-09-19T02:16:03;16.51;76.56
68556;HTU21D;55544;51.032;5.866;2023-09-19T02:18:30;16.47;76.76
68556;HTU21D;55544;51.032;5.866;2023-09-19T02:20:56;16.54;76.45
68556;HTU21D;55544;51.032;5.866;2023-09-19T02:23:24;16.47;76.60
68556;HTU21D;55544;51.032;5.866;2023-09-19T02:25:54;16.44;76.79
68556;HTU21D;55544;51.032;5.866;2023-09-19T02:28:20;16.41;76.88
68556;HTU21D;55544;51.032;5.866;2023-09-19T02:30:48;16.40;76.72
68556;HTU21D;55544;51.032;5.866;2023-09-19T02:33:17;16.43;76.69
68556;HTU21D;55544;51.032;5.866;2023-09-19T02:35:43;16.37;76.97
68556;HTU21D;55544;51.032;5.866;2023-09-19T02:38:08;16.33;77.07
68556;HTU21D;55544;51.032;5.866;2023-09-19T02:40:37;16.34;76.98
68556;HTU21D;55544;51.032;5.866;2023-09-19T02:43:03;16.41;76.63
68556;HTU21D;55544;51.032;5.866;2023-09-19T02:45:28;16.39;76.46
68556;HTU21D;55544;51.032;5.866;2023-09-19T02:47:56;16.35;76.68
68556;HTU21D;55544;51.032;5.866;2023-09-19T02:50:22;16.33;76.72
68556;HTU21D;55544;51.032;5.866;2023-09-19T02:52:48;16.32;76.77
68556;HTU21D;55544;51.032;5.866;2023-09-19T02:55:18;16.34;76.66
68556;HTU21D;55544;51.032;5.866;2023-09-19T02:57:52;16.34;76.77
68556;HTU21D;55544;51.032;5.866;2023-09-19T03:00:21;16.36;76.73
68556;HTU21D;55544;51.032;5.866;2023-09-19T03:02:52;16.30;76.92
68556;HTU21D;55544;51.032;5.866;2023-09-19T03:05:19;16.33;77.17
68556;HTU21D;55544;51.032;5.866;2023-09-19T03:07:49;16.35;77.15
68556;HTU21D;55544;51.032;5.866;2023-09-19T03:10:20;16.36;77.06
68556;HTU21D;55544;51.032;5.866;2023-09-19T03:12:47;16.35;77.16
68556;HTU21D;55544;51.032;5.866;2023-09-19T03:15:14;16.36;77.18
68556;HTU21D;55544;51.032;5.866;2023-09-19T03:17:45;16.39;76.98
68556;HTU21D;55544;51.032;5.866;2023-09-19T03:20:17;16.34;77.63
68556;HTU21D;55544;51.032;5.866;2023-09-19T03:22:43;16.34;77.53
68556;HTU21D;55544;51.032;5.866;2023-09-19T03:25:09;16.36;77.46
68556;HTU21D;55544;51.032;5.866;2023-09-19T03:27:39;16.32;77.37
68556;HTU21D;55544;51.032;5.866;2023-09-19T03:30:07;16.32;77.76
68556;HTU21D;55544;51.032;5.866;2023-09-19T03:32:49;16.33;77.40
68556;HTU21D;55544;51.032;5.866;2023-09-19T03:35:16;16.31;77.51
68556;HTU21D;55544;51.032;5.866;2023-09-19T03:37:43;16.28;77.63
68556;HTU21D;55544;51.032;5.866;2023-09-19T03:40:11;16.27;77.58
68556;HTU21D;55544;51.032;5.866;2023-09-19T03:42:41;16.25;77.55
68556;HTU21D;55544;51.032;5.866;2023-09-19T03:45:10;16.27;77.24
68556;HTU21D;55544;51.032;5.866;2023-09-19T03:47:43;16.26;77.30
68556;HTU21D;55544;51.032;5.866;2023-09-19T03:50:10;16.21;77.34
68556;HTU21D;55544;51.032;5.866;2023-09-19T03:52:45;16.20;77.40
68556;HTU21D;55544;51.032;5.866;2023-09-19T03:55:11;16.17;77.10
68556;HTU21D;55544;51.032;5.866;2023-09-19T03:57:38;16.18;76.86
68556;HTU21D;55544;51.032;5.866;2023-09-19T04:00:04;16.25;76.37
68556;HTU21D;55544;51.032;5.866;2023-09-19T04:02:39;16.18;76.45
68556;HTU21D;55544;51.032;5.866;2023-09-19T04:05:05;16.10;76.17
68556;HTU21D;55544;51.032;5.866;2023-09-19T04:07:31;16.10;76.48
68556;HTU21D;55544;51.032;5.866;2023-09-19T04:09:57;16.13;76.06
68556;HTU21D;55544;51.032;5.866;2023-09-19T04:12:23;16.15;75.80
68556;HTU21D;55544;51.032;5.866;2023-09-19T04:14:48;16.16;75.70
68556;HTU21D;55544;51.032;5.866;2023-09-19T04:17:15;16.08;75.88
68556;HTU21D;55544;51.032;5.866;2023-09-19T04:19:41;16.11;75.54
68556;HTU21D;55544;51.032;5.866;2023-09-19T04:22:07;16.13;75.25
68556;HTU21D;55544;51.032;5.866;2023-09-19T04:24:33;16.10;75.21
68556;HTU21D;55544;51.032;5.866;2023-09-19T04:26:59;16.15;75.09
68556;HTU21D;55544;51.032;5.866;2023-09-19T04:29:25;16.08;75.39
68556;HTU21D;55544;51.032;5.866;2023-09-19T04:31:56;16.12;75.32
68556;HTU21D;55544;51.032;5.866;2023-09-19T04:34:24;16.11;75.33
68556;HTU21D;55544;51.032;5.866;2023-09-19T04:36:50;16.07;75.15
68556;HTU21D;55544;51.032;5.866;2023-09-19T04:39:16;16.13;74.64
68556;HTU21D;55544;51.032;5.866;2023-09-19T04:41:42;16.16;74.87
68556;HTU21D;55544;51.032;5.866;2023-09-19T04:44:10;16.25;74.56
68556;HTU21D;55544;51.032;5.866;2023-09-19T04:46:36;16.22;74.30
68556;HTU21D;55544;51.032;5.866;2023-09-19T04:49:01;16.25;74.31
68556;HTU21D;55544;51.032;5.866;2023-09-19T04:51:30;16.25;74.66
68556;HTU21D;55544;51.032;5.866;2023-09-19T04:54:00;16.25;74.29
68556;HTU21D;55544;51.032;5.866;2023-09-19T04:56:26;16.22;74.72
68556;HTU21D;55544;51.032;5.866;2023-09-19T04:58:54;16.17;74.85
68556;HTU21D;55544;51.032;5.866;2023-09-19T05:01:19;16.18;75.08
68556;HTU21D;55544;51.032;5.866;2023-09-19T05:03:48;16.17;75.24
68556;HTU21D;55544;51.032;5.866;2023-09-19T05:06:21;16.16;75.28
68556;HTU21D;55544;51.032;5.866;2023-09-19T05:08:47;16.21;74.96
68556;HTU21D;55544;51.032;5.866;2023-09-19T05:11:20;16.17;75.12
68556;HTU21D;55544;51.032;5.866;2023-09-19T05:13:50;16.14;75.49
68556;HTU21D;55544;51.032;5.866;2023-09-19T05:16:16;16.15;75.22
68556;HTU21D;55544;51.032;5.866;2023-09-19T05:18:42;16.14;75.56
68556;HTU21D;55544;51.032;5.866;2023-09-19T05:21:08;16.06;76.14
68556;HTU21D;55544;51.032;5.866;2023-09-19T05:23:33;16.10;75.68
68556;HTU21D;55544;51.032;5.866;2023-09-19T05:25:59;16.08;75.71
68556;HTU21D;55544;51.032;5.866;2023-09-19T05:28:26;16.07;75.95
68556;HTU21D;55544;51.032;5.866;2023-09-19T05:30:53;16.07;76.25
68556;HTU21D;55544;51.032;5.866;2023-09-19T05:33:19;15.99;76.41
68556;HTU21D;55544;51.032;5.866;2023-09-19T05:35:45;15.99;76.73
68556;HTU21D;55544;51.032;5.866;2023-09-19T05:38:13;16.00;76.98
68556;HTU21D;55544;51.032;5.866;2023-09-19T05:40:40;16.02;77.09
68556;HTU21D;55544;51.032;5.866;2023-09-19T05:43:11;16.01;77.05
68556;HTU21D;55544;51.032;5.866;2023-09-19T05:45:37;16.05;77.21
68556;HTU21D;55544;51.032;5.866;2023-09-19T05:48:10;16.04;77.21
68556;HTU21D;55544;51.032;5.866;2023-09-19T05:50:37;16.10;77.20
68556;HTU21D;55544;51.032;5.866;2023-09-19T05:53:03;16.11;77.28
68556;HTU21D;55544;51.032;5.866;2023-09-19T05:55:33;16.10;77.18
68556;HTU21D;55544;51.032;5.866;2023-09-19T05:57:59;16.08;77.25
68556;HTU21D;55544;51.032;5.866;2023-09-19T06:00:25;16.03;77.35
68556;HTU21D;55544;51.032;5.866;2023-09-19T06:02:54;16.08;77.29
68556;HTU21D;55544;51.032;5.866;2023-09-19T06:05:21;16.10;77.06
68556;HTU21D;55544;51.032;5.866;2023-09-19T06:07:47;16.08;77.27
68556;HTU21D;55544;51.032;5.866;2023-09-19T06:10:13;16.15;77.06
68556;HTU21D;55544;51.032;5.866;2023-09-19T06:12:44;16.12;77.07
68556;HTU21D;55544;51.032;5.866;2023-09-19T06:15:10;16.05;77.33
68556;HTU21D;55544;51.032;5.866;2023-09-19T06:17:50;16.07;77.69
68556;HTU21D;55544;51.032;5.866;2023-09-19T06:20:17;16.03;77.77
68556;HTU21D;55544;51.032;5.866;2023-09-19T06:22:44;16.04;77.60
68556;HTU21D;55544;51.032;5.866;2023-09-19T06:25:12;16.17;77.05
68556;HTU21D;55544;51.032;5.866;2023-09-19T06:27:39;16.05;77.76
68556;HTU21D;55544;51.032;5.866;2023-09-19T06:30:08;16.14;77.48
68556;HTU21D;55544;51.032;5.866;2023-09-19T06:32:35;16.13;77.68
68556;HTU21D;55544;51.032;5.866;2023-09-19T06:35:01;16.19;77.37
68556;HTU21D;55544;51.032;5.866;2023-09-19T06:37:28;16.22;77.27
68556;HTU21D;55544;51.032;5.866;2023-09-19T06:39:54;16.25;77.54
68556;HTU21D;55544;51.032;5.866;2023-09-19T06:42:21;16.31;77.52
68556;HTU21D;55544;51.032;5.866;2023-09-19T06:44:48;16.29;77.17
68556;HTU21D;55544;51.032;5.866;2023-09-19T06:47:14;16.35;76.99
68556;HTU21D;55544;51.032;5.866;2023-09-19T06:49:42;16.39;76.89
68556;HTU21D;55544;51.032;5.866;2023-09-19T06:52:11;16.39;76.99
68556;HTU21D;55544;51.032;5.866;2023-09-19T06:54:37;16.43;77.16
68556;HTU21D;55544;51.032;5.866;2023-09-19T06:57:03;16.44;77.20
68556;HTU21D;55544;51.032;5.866;2023-09-19T06:59:29;16.46;77.12
68556;HTU21D;55544;51.032;5.866;2023-09-19T07:01:55;16.49;77.23
68556;HTU21D;55544;51.032;5.866;2023-09-19T07:04:20;16.58;76.98
68556;HTU21D;55544;51.032;5.866;2023-09-19T07:06:50;16.62;76.64
68556;HTU21D;55544;51.032;5.866;2023-09-19T07:09:16;16.62;76.39
68556;HTU21D;55544;51.032;5.866;2023-09-19T07:11:43;16.64;76.33
68556;HTU21D;55544;51.032;5.866;2023-09-19T07:14:08;16.67;76.33
68556;HTU21D;55544;51.032;5.866;2023-09-19T07:16:37;16.73;76.46
68556;HTU21D;55544;51.032;5.866;2023-09-19T07:19:05;16.78;76.09
68556;HTU21D;55544;51.032;5.866;2023-09-19T07:21:31;16.92;75.73
68556;HTU21D;55544;51.032;5.866;2023-09-19T07:24:01;16.90;75.41
68556;HTU21D;55544;51.032;5.866;2023-09-19T07:26:28;16.91;75.87
68556;HTU21D;55544;51.032;5.866;2023-09-19T07:28:54;16.94;75.43
68556;HTU21D;55544;51.032;5.866;2023-09-19T07:31:20;17.05;74.99
68556;HTU21D;55544;51.032;5.866;2023-09-19T07:33:48;17.08;75.40
68556;HTU21D;55544;51.032;5.866;2023-09-19T07:36:14;17.13;75.30
68556;HTU21D;55544;51.032;5.866;2023-09-19T07:38:41;17.26;74.68
68556;HTU21D;55544;51.032;5.866;2023-09-19T07:41:08;17.32;74.52
68556;HTU21D;55544;51.032;5.866;2023-09-19T07:43:37;17.34;74.14
68556;HTU21D;55544;51.032;5.866;2023-09-19T07:46:06;17.40;74.39
68556;HTU21D;55544;51.032;5.866;2023-09-19T07:48:37;17.46;73.72
68556;HTU21D;55544;51.032;5.866;2023-09-19T07:51:08;17.47;73.83
68556;HTU21D;55544;51.032;5.866;2023-09-19T07:53:35;17.52;73.65
68556;HTU21D;55544;51.032;5.866;2023-09-19T07:56:02;17.56;73.58
68556;HTU21D;55544;51.032;5.866;2023-09-19T07:58:29;17.48;73.39
68556;HTU21D;55544;51.032;5.866;2023-09-19T08:00:55;17.51;72.37
68556;HTU21D;55544;51.032;5.866;2023-09-19T08:03:20;17.51;73.27
68556;HTU21D;55544;51.032;5.866;2023-09-19T08:05:46;17.59;73.47
68556;HTU21D;55544;51.032;5.866;2023-09-19T08:08:14;17.73;72.89
68556;HTU21D;55544;51.032;5.866;2023-09-19T08:10:40;17.75;72.12
68556;HTU21D;55544;51.032;5.866;2023-09-19T08:13:07;17.82;72.33
68556;HTU21D;55544;51.032;5.866;2023-09-19T08:15:43;17.87;71.75
68556;HTU21D;55544;51.032;5.866;2023-09-19T08:18:09;17.89;71.77
68556;HTU21D;55544;51.032;5.866;2023-09-19T08:20:38;17.88;71.24
68556;HTU21D;55544;51.032;5.866;2023-09-19T08:23:04;17.92;71.87
68556;HTU21D;55544;51.032;5.866;2023-09-19T08:25:29;18.00;72.04
68556;HTU21D;55544;51.032;5.866;2023-09-19T08:27:55;18.05;70.60
68556;HTU21D;55544;51.032;5.866;2023-09-19T08:30:26;17.99;70.29
68556;HTU21D;55544;51.032;5.866;2023-09-19T08:33:02;18.07;70.50
68556;HTU21D;55544;51.032;5.866;2023-09-19T08:35:30;18.07;70.67
68556;HTU21D;55544;51.032;5.866;2023-09-19T08:37:56;18.15;70.24
68556;HTU21D;55544;51.032;5.866;2023-09-19T08:40:22;18.18;69.23
68556;HTU21D;55544;51.032;5.866;2023-09-19T08:42:55;18.09;70.31
68556;HTU21D;55544;51.032;5.866;2023-09-19T08:45:22;18.11;70.46
68556;HTU21D;55544;51.032;5.866;2023-09-19T08:48:24;18.21;70.74
68556;HTU21D;55544;51.032;5.866;2023-09-19T08:51:03;18.38;69.56
68556;HTU21D;55544;51.032;5.866;2023-09-19T08:53:43;18.17;69.93
68556;HTU21D;55544;51.032;5.866;2023-09-19T08:56:17;18.26;70.64
68556;HTU21D;55544;51.032;5.866;2023-09-19T08:59:07;18.51;70.26
68556;HTU21D;55544;51.032;5.866;2023-09-19T09:01:39;18.56;69.08
68556;HTU21D;55544;51.032;5.866;2023-09-19T09:04:11;18.48;68.78
68556;HTU21D;55544;51.032;5.866;2023-09-19T09:06:39;18.50;68.87
68556;HTU21D;55544;51.032;5.866;2023-09-19T09:09:09;18.53;69.08
68556;HTU21D;55544;51.032;5.866;2023-09-19T09:11:36;18.58;69.66
68556;HTU21D;55544;51.032;5.866;2023-09-19T09:14:06;18.71;67.68
68556;HTU21D;55544;51.032;5.866;2023-09-19T09:16:33;18.72;67.98
68556;HTU21D;55544;51.032;5.866;2023-09-19T09:19:00;18.81;68.01
68556;HTU21D;55544;51.032;5.866;2023-09-19T09:21:27;18.82;68.31
68556;HTU21D;55544;51.032;5.866;2023-09-19T09:23:54;18.91;68.33
68556;HTU21D;55544;51.032;5.866;2023-09-19T09:29:04;19.11;68.63
68556;HTU21D;55544;51.032;5.866;2023-09-19T09:31:30;19.24;66.91
68556;HTU21D;55544;51.032;5.866;2023-09-19T09:33:56;19.13;66.64
68556;HTU21D;55544;51.032;5.866;2023-09-19T09:36:37;19.16;66.42
68556;HTU21D;55544;51.032;5.866;2023-09-19T09:39:03;19.16;66.99
68556;HTU21D;55544;51.032;5.866;2023-09-19T09:41:42;19.27;65.93
68556;HTU21D;55544;51.032;5.866;2023-09-19T09:44:17;19.37;66.62
68556;HTU21D;55544;51.032;5.866;2023-09-19T09:46:48;19.53;65.06
68556;HTU21D;55544;51.032;5.866;2023-09-19T09:49:24;19.47;64.14
68556;HTU21D;55544;51.032;5.866;2023-09-19T09:52:07;19.39;65.00
68556;HTU21D;55544;51.032;5.866;2023-09-19T09:54:35;19.45;65.56
68556;HTU21D;55544;51.032;5.866;2023-09-19T09:57:11;19.57;65.57
68556;HTU21D;55544;51.032;5.866;2023-09-19T09:59:52;19.57;65.43
68556;HTU21D;55544;51.032;5.866;2023-09-19T10:02:21;19.63;65.53
68556;HTU21D;55544;51.032;5.866;2023-09-19T10:04:51;19.65;65.18
68556;HTU21D;55544;51.032;5.866;2023-09-19T10:07:43;19.77;63.95
68556;HTU21D;55544;51.032;5.866;2023-09-19T10:10:33;19.72;62.84
68556;HTU21D;55544;51.032;5.866;2023-09-19T10:13:13;19.68;62.24
68556;HTU21D;55544;51.032;5.866;2023-09-19T10:15:47;19.63;62.64
68556;HTU21D;55544;51.032;5.866;2023-09-19T10:18:24;19.58;62.34
68556;HTU21D;55544;51.032;5.866;2023-09-19T10:20:51;19.54;63.05
68556;HTU21D;55544;51.032;5.866;2023-09-19T10:23:19;19.55;62.98
68556;HTU21D;55544;51.032;5.866;2023-09-19T10:25:53;19.55;63.13
68556;HTU21D;55544;51.032;5.866;2023-09-19T10:28:20;19.57;63.14
68556;HTU21D;55544;51.032;5.866;2023-09-19T10:30:51;19.52;62.34
68556;HTU21D;55544;51.032;5.866;2023-09-19T10:33:19;19.52;62.00
68556;HTU21D;55544;51.032;5.866;2023-09-19T10:35:48;19.53;61.39
68556;HTU21D;55544;51.032;5.866;2023-09-19T10:38:18;19.50;61.36
68556;HTU21D;55544;51.032;5.866;2023-09-19T10:40:51;19.48;62.42
68556;HTU21D;55544;51.032;5.866;2023-09-19T10:43:20;19.60;62.86
68556;HTU21D;55544;51.032;5.866;2023-09-19T10:45:48;19.71;60.62
68556;HTU21D;55544;51.032;5.866;2023-09-19T10:48:16;19.67;61.20
68556;HTU21D;55544;51.032;5.866;2023-09-19T10:53:51;19.90;61.12
68556;HTU21D;55544;51.032;5.866;2023-09-19T10:56:35;19.99;61.36
68556;HTU21D;55544;51.032;5.866;2023-09-19T10:59:15;20.04;60.55
68556;HTU21D;55544;51.032;5.866;2023-09-19T11:01:44;20.19;60.99
68556;HTU21D;55544;51.032;5.866;2023-09-19T11:04:26;20.41;60.61
68556;HTU21D;55544;51.032;5.866;2023-09-19T11:07:08;20.59;60.11
68556;HTU21D;55544;51.032;5.866;2023-09-19T11:15:07;20.92;59.55
68556;HTU21D;55544;51.032;5.866;2023-09-19T11:17:35;21.05;59.17
68556;HTU21D;55544;51.032;5.866;2023-09-19T11:30:41;21.54;57.16
68556;HTU21D;55544;51.032;5.866;2023-09-19T11:33:18;21.44;56.07
68556;HTU21D;55544;51.032;5.866;2023-09-19T11:36:09;21.45;57.44
68556;HTU21D;55544;51.032;5.866;2023-09-19T11:44:31;21.57;57.69
68556;HTU21D;55544;51.032;5.866;2023-09-19T11:46:53;21.80;56.74
68556;HTU21D;55544;51.032;5.866;2023-09-19T11:49:27;22.01;57.43
68556;HTU21D;55544;51.032;5.866;2023-09-19T11:51:56;22.28;56.09
68556;HTU21D;55544;51.032;5.866;2023-09-19T11:54:23;22.26;53.81
68556;HTU21D;55544;51.032;5.866;2023-09-19T11:56:54;22.25;54.75
68556;HTU21D;55544;51.032;5.866;2023-09-19T11:59:21;22.38;55.97
68556;HTU21D;55544;51.032;5.866;2023-09-19T12:01:53;22.48;54.03
68556;HTU21D;55544;51.032;5.866;2023-09-19T12:04:43;22.47;52.20
68556;HTU21D;55544;51.032;5.866;2023-09-19T12:07:11;22.29;53.50
68556;HTU21D;55544;51.032;5.866;2023-09-19T12:09:45;22.28;54.22
68556;HTU21D;55544;51.032;5.866;2023-09-19T12:12:26;22.37;54.09
68556;HTU21D;55544;51.032;5.866;2023-09-19T12:14:54;22.28;53.75
68556;HTU21D;55544;51.032;5.866;2023-09-19T12:17:20;22.24;53.73
68556;HTU21D;55544;51.032;5.866;2023-09-19T12:19:53;22.24;53.95
68556;HTU21D;55544;51.032;5.866;2023-09-19T12:22:19;22.31;53.84
68556;HTU21D;55544;51.032;5.866;2023-09-19T12:24:46;22.24;53.62
68556;HTU21D;55544;51.032;5.866;2023-09-19T12:27:13;22.07;55.20
68556;HTU21D;55544;51.032;5.866;2023-09-19T12:29:49;22.04;54.24
68556;HTU21D;55544;51.032;5.866;2023-09-19T12:32:16;22.10;54.60
68556;HTU21D;55544;51.032;5.866;2023-09-19T12:34:51;22.09;53.88
68556;HTU21D;55544;51.032;5.866;2023-09-19T12:37:18;22.06;55.34
68556;HTU21D;55544;51.032;5.866;2023-09-19T12:39:52;22.25;54.28
68556;HTU21D;55544;51.032;5.866;2023-09-19T12:42:21;22.28;53.40
68556;HTU21D;55544;51.032;5.866;2023-09-19T12:44:52;22.27;54.37
68556;HTU21D;55544;51.032;5.866;2023-09-19T12:47:23;22.05;54.50
68556;HTU21D;55544;51.032;5.866;2023-09-19T12:50:13;22.09;54.61
68556;HTU21D;55544;51.032;5.866;2023-09-19T12:52:48;21.99;54.67
68556;HTU21D;55544;51.032;5.866;2023-09-19T12:55:31;21.92;55.49
68556;HTU21D;55544;51.032;5.866;2023-09-19T12:58:14;21.92;55.68
68556;HTU21D;55544;51.032;5.866;2023-09-19T13:00:45;21.90;56.04
68556;HTU21D;55544;51.032;5.866;2023-09-19T13:05:59;22.06;55.68
68556;HTU21D;55544;51.032;5.866;2023-09-19T13:08:39;21.94;55.23
68556;HTU21D;55544;51.032;5.866;2023-09-19T13:11:14;21.80;55.62
68556;HTU21D;55544;51.032;5.866;2023-09-19T13:13:46;21.65;55.64
68556;HTU21D;55544;51.032;5.866;2023-09-19T13:16:16;21.62;56.54
68556;HTU21D;55544;51.032;5.866;2023-09-19T13:18:54;21.58;57.47
68556;HTU21D;55544;51.032;5.866;2023-09-19T13:21:32;21.53;57.26
68556;HTU21D;55544;51.032;5.866;2023-09-19T13:24:22;21.54;57.59
68556;HTU21D;55544;51.032;5.866;2023-09-19T13:26:49;21.45;56.70
68556;HTU21D;55544;51.032;5.866;2023-09-19T13:29:15;21.33;57.07
68556;HTU21D;55544;51.032;5.866;2023-09-19T13:31:53;21.28;57.46
68556;HTU21D;55544;51.032;5.866;2023-09-19T13:34:19;21.23;57.07
68556;HTU21D;55544;51.032;5.866;2023-09-19T13:36:45;21.39;57.12
68556;HTU21D;55544;51.032;5.866;2023-09-19T13:39:17;21.49;56.70
68556;HTU21D;55544;51.032;5.866;2023-09-19T13:41:47;21.47;56.05
68556;HTU21D;55544;51.032;5.866;2023-09-19T13:44:14;21.59;56.81
68556;HTU21D;55544;51.032;5.866;2023-09-19T13:46:39;21.70;56.45
68556;HTU21D;55544;51.032;5.866;2023-09-19T13:49:06;21.72;56.13
68556;HTU21D;55544;51.032;5.866;2023-09-19T13:51:32;21.73;56.11
68556;HTU21D;55544;51.032;5.866;2023-09-19T13:53:58;21.67;56.27
68556;HTU21D;55544;51.032;5.866;2023-09-19T13:56:25;21.55;56.40
68556;HTU21D;55544;51.032;5.866;2023-09-19T13:58:56;21.47;56.32
68556;HTU21D;55544;51.032;5.866;2023-09-19T14:01:22;21.36;56.46
68556;HTU21D;55544;51.032;5.866;2023-09-19T14:03:48;21.24;57.15
68556;HTU21D;55544;51.032;5.866;2023-09-19T14:06:18;21.22;57.88
68556;HTU21D;55544;51.032;5.866;2023-09-19T14:08:44;21.27;58.12
68556;HTU21D;55544;51.032;5.866;2023-09-19T14:11:13;21.29;57.12
68556;HTU21D;55544;51.032;5.866;2023-09-19T14:13:43;21.29;56.56
68556;HTU21D;55544;51.032;5.866;2023-09-19T14:16:15;21.39;56.17
68556;HTU21D;55544;51.032;5.866;2023-09-19T14:18:41;21.35;56.28
68556;HTU21D;55544;51.032;5.866;2023-09-19T14:21:07;21.36;56.42
68556;HTU21D;55544;51.032;5.866;2023-09-19T14:23:37;21.37;56.58
68556;HTU21D;55544;51.032;5.866;2023-09-19T14:26:04;21.36;57.67
68556;HTU21D;55544;51.032;5.866;2023-09-19T14:28:31;21.33;56.65
68556;HTU21D;55544;51.032;5.866;2023-09-19T14:31:04;21.32;57.07
68556;HTU21D;55544;51.032;5.866;2023-09-19T14:33:31;21.23;56.60
68556;HTU21D;55544;51.032;5.866;2023-09-19T14:35:57;21.18;57.86
68556;HTU21D;55544;51.032;5.866;2023-09-19T14:38:22;21.04;58.59
68556;HTU21D;55544;51.032;5.866;2023-09-19T14:40:48;21.10;58.23
68556;HTU21D;55544;51.032;5.866;2023-09-19T14:43:15;21.08;57.99
68556;HTU21D;55544;51.032;5.866;2023-09-19T14:45:41;21.06;58.28
68556;HTU21D;55544;51.032;5.866;2023-09-19T14:48:07;21.07;58.38
68556;HTU21D;55544;51.032;5.866;2023-09-19T14:50:33;21.06;58.39
68556;HTU21D;55544;51.032;5.866;2023-09-19T14:52:58;21.02;59.20
68556;HTU21D;55544;51.032;5.866;2023-09-19T14:55:27;21.04;58.19
68556;HTU21D;55544;51.032;5.866;2023-09-19T14:57:55;21.01;58.03
68556;HTU21D;55544;51.032;5.866;2023-09-19T15:00:22;20.98;58.38
68556;HTU21D;55544;51.032;5.866;2023-09-19T15:02:49;20.89;58.41
68556;HTU21D;55544;51.032;5.866;2023-09-19T15:05:16;20.85;58.25
68556;HTU21D;55544;51.032;5.866;2023-09-19T15:07:42;20.77;58.42
68556;HTU21D;55544;51.032;5.866;2023-09-19T15:10:08;20.74;59.44
68556;HTU21D;55544;51.032;5.866;2023-09-19T15:12:38;20.84;59.93
68556;HTU21D;55544;51.032;5.866;2023-09-19T15:15:05;20.87;58.99
68556;HTU21D;55544;51.032;5.866;2023-09-19T15:17:35;21.08;59.14
68556;HTU21D;55544;51.032;5.866;2023-09-19T15:20:01;21.22;59.25
68556;HTU21D;55544;51.032;5.866;2023-09-19T15:22:27;21.42;57.85
68556;HTU21D;55544;51.032;5.866;2023-09-19T15:24:53;21.51;57.47
68556;HTU21D;55544;51.032;5.866;2023-09-19T15:27:19;21.72;57.50
68556;HTU21D;55544;51.032;5.866;2023-09-19T15:29:46;21.82;57.13
68556;HTU21D;55544;51.032;5.866;2023-09-19T15:32:12;21.83;56.65
68556;HTU21D;55544;51.032;5.866;2023-09-19T15:34:37;21.81;56.32
68556;HTU21D;55544;51.032;5.866;2023-09-19T15:37:03;21.77;56.51
68556;HTU21D;55544;51.032;5.866;2023-09-19T15:39:32;21.63;56.74
68556;HTU21D;55544;51.032;5.866;2023-09-19T15:41:59;21.59;57.48
68556;HTU21D;55544;51.032;5.866;2023-09-19T15:44:24;21.48;57.26
68556;HTU21D;55544;51.032;5.866;2023-09-19T15:46:53;21.46;57.22
68556;HTU21D;55544;51.032;5.866;2023-09-19T15:49:19;21.36;57.73
68556;HTU21D;55544;51.032;5.866;2023-09-19T15:51:46;21.45;56.97
68556;HTU21D;55544;51.032;5.866;2023-09-19T15:54:13;21.61;57.30
68556;HTU21D;55544;51.032;5.866;2023-09-19T15:56:43;21.74;55.90
68556;HTU21D;55544;51.032;5.866;2023-09-19T15:59:10;21.74;56.03
68556;HTU21D;55544;51.032;5.866;2023-09-19T16:01:38;21.61;55.54
68556;HTU21D;55544;51.032;5.866;2023-09-19T16:04:06;21.59;56.43
68556;HTU21D;55544;51.032;5.866;2023-09-19T16:06:35;21.52;56.55
68556;HTU21D;55544;51.032;5.866;2023-09-19T16:09:01;21.52;56.78
68556;HTU21D;55544;51.032;5.866;2023-09-19T16:11:32;21.51;57.13
68556;HTU21D;55544;51.032;5.866;2023-09-19T16:13:58;21.63;57.02
68556;HTU21D;55544;51.032;5.866;2023-09-19T16:16:26;21.63;56.87
68556;HTU21D;55544;51.032;5.866;2023-09-19T16:18:58;21.59;56.25
68556;HTU21D;55544;51.032;5.866;2023-09-19T16:21:31;21.40;56.77